Time;durP1;ratioP1;P1;durP2;ratioP2;P2;SDS_P1;SDS_P2;PMS_P1;PMS_P2;Temp;Humidity;BMP_temperature;BMP_pressure;BME280_temperature;BME280_humidity;BME280_pressure;Samples;Min_cycle;Max_cycle;Signal;HPM_P1;HPM_P2
2023/03/04 00:01:46;;;;;;;1.75;1.55;;;;;;;11.35;89.47;101450.47;7399122;19;20010;-62
2023/03/04 00:04:12;;;;;;;4.45;2.42;;;;;;;11.22;89.85;101446.88;7397867;19;20014;-62
2023/03/04 00:06:38;;;;;;;3.25;1.65;;;;;;;11.31;89.02;101439.44;7395503;19;20010;-62
2023/03/04 00:09:05;;;;;;;7.30;1.75;;;;;;;11.06;91.15;101444.16;7400414;19;20328;-62
2023/03/04 00:11:31;;;;;;;2.50;1.60;;;;;;;11.21;90.72;101437.75;7400408;19;20022;-62
2023/03/04 00:13:57;;;;;;;11.38;3.10;;;;;;;11.21;89.07;101440.53;7398558;19;20021;-62
2023/03/04 00:16:26;;;;;;;6.95;2.00;;;;;;;11.23;89.06;101438.09;7399867;19;20058;-62
2023/03/04 00:18:56;;;;;;;6.35;2.75;;;;;;;11.29;88.88;101436.31;7399979;19;20011;-62
2023/03/04 00:21:23;;;;;;;4.85;1.83;;;;;;;11.32;88.56;101448.59;7399960;19;20355;-62
2023/03/04 00:23:50;;;;;;;3.75;1.52;;;;;;;11.36;87.70;101435.31;7398944;19;20011;-63
2023/03/04 00:26:16;;;;;;;4.93;1.92;;;;;;;11.33;88.54;101436.19;7397832;19;20018;-62
2023/03/04 00:28:43;;;;;;;3.85;2.50;;;;;;;11.27;88.36;101444.34;7399445;19;20467;-63
2023/03/04 00:31:10;;;;;;;7.18;3.20;;;;;;;11.28;88.34;101443.09;7399168;19;20022;-62
2023/03/04 00:33:36;;;;;;;8.02;2.90;;;;;;;11.27;88.56;101447.13;7398752;19;20010;-62
2023/03/04 00:36:03;;;;;;;2.58;2.15;;;;;;;11.28;88.48;101442.34;7399029;19;20014;-62
2023/03/04 00:38:29;;;;;;;5.65;2.58;;;;;;;11.18;88.26;101446.19;7403624;19;20018;-62
2023/03/04 00:40:56;;;;;;;2.03;1.35;;;;;;;11.22;88.67;101446.88;7399706;19;20017;-63
2023/03/04 00:43:22;;;;;;;5.07;2.58;;;;;;;11.24;88.65;101447.25;7398957;19;20046;-62
2023/03/04 00:45:48;;;;;;;8.07;2.35;;;;;;;11.26;88.36;101444.78;7396652;19;20019;-61
2023/03/04 00:48:15;;;;;;;3.40;2.38;;;;;;;11.26;88.77;101442.75;7401069;19;20014;-60
2023/03/04 00:50:42;;;;;;;1.95;1.40;;;;;;;11.07;89.03;101440.13;7397268;19;20010;-60
2023/03/04 00:53:09;;;;;;;6.80;1.27;;;;;;;12.29;82.80;101440.44;7398585;19;20014;-60
2023/03/04 00:55:36;;;;;;;5.50;2.38;;;;;;;11.18;84.72;101441.41;7398781;19;20021;-62
2023/03/04 00:58:02;;;;;;;2.15;1.95;;;;;;;12.67;76.50;101434.75;7400570;19;20497;-62
2023/03/04 01:00:28;;;;;;;2.88;2.22;;;;;;;9.26;87.64;101459.56;7401506;19;20010;-62
2023/03/04 01:02:56;;;;;;;1.20;1.13;;;;;;;7.73;100.00;101458.94;7396223;19;20026;-60
2023/03/04 01:05:22;;;;;;;2.45;2.13;;;;;;;10.99;95.24;101447.91;7394872;19;20013;-60
2023/03/04 01:07:48;;;;;;;1.25;1.23;;;;;;;11.84;87.90;101440.69;7400027;19;20027;-61
2023/03/04 01:10:15;;;;;;;2.47;2.28;;;;;;;12.35;82.87;101449.03;7398700;19;20011;-61
2023/03/04 01:12:41;;;;;;;1.17;1.08;;;;;;;14.64;71.95;101434.84;7398302;19;20032;-60
2023/03/04 01:15:10;;;;;;;4.38;1.73;;;;;;;13.37;75.98;101446.25;7398626;19;20030;-60
2023/03/04 01:17:39;;;;;;;3.42;1.75;;;;;;;13.79;72.97;101438.28;7397850;19;20360;-60
2023/03/04 01:20:07;;;;;;;2.42;2.15;;;;;;;12.60;74.85;101437.81;7400268;19;20348;-60
2023/03/04 01:22:35;;;;;;;1.45;1.33;;;;;;;12.21;78.58;101432.75;7395769;19;20070;-60
2023/03/04 01:25:01;;;;;;;1.38;1.27;;;;;;;11.65;81.22;101435.28;7396948;19;20070;-61
2023/03/04 01:27:27;;;;;;;3.53;2.08;;;;;;;12.12;76.82;101428.63;7397699;19;20024;-61
2023/03/04 01:29:53;;;;;;;2.10;2.00;;;;;;;11.43;82.10;101426.75;7401124;19;20006;-60
2023/03/04 01:32:19;;;;;;;1.75;0.73;;;;;;;11.14;85.13;101429.56;7398904;19;20482;-60
2023/03/04 01:34:47;;;;;;;2.05;1.83;;;;;;;11.04;87.37;101419.50;7397385;19;20494;-60
2023/03/04 01:37:13;;;;;;;1.67;1.58;;;;;;;11.01;88.07;101420.38;7400589;19;20014;-60
2023/03/04 01:39:39;;;;;;;3.13;1.80;;;;;;;10.97;88.72;101418.91;7396950;19;20048;-60
2023/03/04 01:42:17;;;;;;;2.17;1.75;;;;;;;10.95;88.53;101415.78;7397564;19;20021;-60
2023/03/04 01:44:44;;;;;;;0.90;0.90;;;;;;;10.93;87.84;101426.59;7397058;19;20044;-60
2023/03/04 01:47:10;;;;;;;1.15;1.00;;;;;;;10.89;87.19;101417.53;7397002;19;20029;-60
2023/03/04 01:49:36;;;;;;;5.07;1.75;;;;;;;10.91;87.15;101420.69;7396911;19;20034;-60
2023/03/04 01:52:02;;;;;;;4.68;2.05;;;;;;;11.15;87.51;101419.22;7395523;19;20007;-62
2023/03/04 01:54:29;;;;;;;2.78;1.00;;;;;;;11.07;84.95;101420.59;7394538;19;20017;-61
2023/03/04 01:56:59;;;;;;;8.35;2.45;;;;;;;11.01;85.73;101416.81;7395752;19;20010;-62
2023/03/04 01:59:29;;;;;;;1.70;1.45;;;;;;;10.98;85.63;101414.91;7397724;19;20011;-60
2023/03/04 02:01:58;;;;;;;2.15;1.45;;;;;;;10.97;85.46;101413.34;7395285;19;20112;-61
2023/03/04 02:04:33;;;;;;;0.73;0.68;;;;;;;10.93;84.64;101413.44;7394753;19;20014;-61
2023/03/04 02:07:01;;;;;;;6.13;1.80;;;;;;;10.93;85.09;101407.09;7393451;19;20027;-62
2023/03/04 02:09:28;;;;;;;4.65;2.08;;;;;;;10.47;87.36;101402.72;7395786;19;20011;-61
2023/03/04 02:11:54;;;;;;;0.85;0.85;;;;;;;9.96;93.35;101401.59;7394171;19;20042;-62
2023/03/04 02:14:21;;;;;;;2.45;1.23;;;;;;;10.66;88.05;101399.84;7395743;19;20006;-61
2023/03/04 02:16:48;;;;;;;13.77;1.35;;;;;;;10.70;88.16;101401.75;7395682;19;20011;-61
2023/03/04 02:19:39;;;;;;;1.75;0.93;;;;;;;10.68;86.83;101394.59;7395805;19;20382;-61
2023/03/04 02:22:05;;;;;;;0.60;0.28;;;;;;;10.68;86.54;101391.03;7395626;19;20011;-61
2023/03/04 02:24:40;;;;;;;2.90;1.13;;;;;;;12.47;79.95;101390.34;7393460;19;20062;-62
2023/03/04 02:27:06;;;;;;;1.27;1.10;;;;;;;11.26;82.80;101384.19;7393565;19;20486;-62
2023/03/04 02:29:33;;;;;;;4.57;2.13;;;;;;;10.42;87.25;101394.91;7395548;19;20010;-61
2023/03/04 02:31:59;;;;;;;1.55;1.38;;;;;;;11.50;84.42;101387.47;7395017;19;20027;-61
2023/03/04 02:34:32;;;;;;;2.40;1.17;;;;;;;13.52;78.77;101380.09;7393956;19;20014;-61
2023/03/04 02:37:00;;;;;;;7.32;1.73;;;;;;;10.84;83.13;101379.06;7396948;19;20074;-61
2023/03/04 02:39:49;;;;;;;4.35;1.17;;;;;;;10.81;86.38;101386.28;7393158;19;20014;-61
2023/03/04 02:42:17;;;;;;;2.42;1.50;;;;;;;10.78;87.77;101394.75;7393160;19;20010;-61
2023/03/04 02:44:47;;;;;;;1.65;1.00;;;;;;;10.68;87.27;101379.13;7393788;19;20013;-61
2023/03/04 02:47:17;;;;;;;0.75;0.75;;;;;;;10.70;86.00;101382.25;7394372;19;20017;-61
2023/03/04 02:49:43;;;;;;;1.70;1.08;;;;;;;10.62;85.36;101381.63;7392792;19;20010;-61
2023/03/04 02:52:14;;;;;;;0.65;0.65;;;;;;;10.60;84.90;101379.31;7393230;19;20070;-61
2023/03/04 02:54:40;;;;;;;0.73;0.70;;;;;;;10.59;84.43;101380.50;7394513;19;20007;-61
2023/03/04 02:57:10;;;;;;;4.00;1.48;;;;;;;10.56;85.01;101384.19;7394671;19;20015;-61
2023/03/04 02:59:39;;;;;;;2.33;2.13;;;;;;;9.29;89.47;101377.31;7395195;19;20028;-61
2023/03/04 03:02:06;;;;;;;2.17;0.65;;;;;;;9.99;93.25;101374.88;7393206;19;20015;-61
2023/03/04 03:04:36;;;;;;;1.05;0.95;;;;;;;10.09;92.16;101366.25;7393978;19;20066;-61
2023/03/04 03:07:06;;;;;;;1.00;1.00;;;;;;;10.68;86.03;101367.97;7393534;19;20014;-61
2023/03/04 03:09:33;;;;;;;0.85;0.73;;;;;;;10.55;88.17;101365.91;7392197;19;20018;-62
2023/03/04 03:11:59;;;;;;;0.50;0.50;;;;;;;10.81;85.39;101366.00;7398074;19;20018;-61
2023/03/04 03:14:25;;;;;;;0.85;0.85;;;;;;;10.77;86.02;101360.53;7392986;19;20017;-61
2023/03/04 03:16:52;;;;;;;1.45;0.88;;;;;;;10.76;85.55;101353.41;7393536;19;20011;-61
2023/03/04 03:19:18;;;;;;;0.50;0.50;;;;;;;10.62;86.19;101354.56;7393702;19;20010;-60
2023/03/04 03:21:44;;;;;;;1.85;1.50;;;;;;;10.59;85.79;101349.06;7391280;19;20019;-61
2023/03/04 03:24:11;;;;;;;1.88;1.20;;;;;;;10.28;85.21;101357.09;7390287;19;20018;-61
2023/03/04 03:26:38;;;;;;;1.48;1.15;;;;;;;10.22;86.53;101353.22;7393299;19;20353;-62
2023/03/04 03:29:04;;;;;;;0.50;0.50;;;;;;;10.30;87.47;101359.41;7393156;19;20018;-62
2023/03/04 03:31:31;;;;;;;0.25;0.25;;;;;;;10.30;86.91;101360.22;7392084;19;20013;-61
2023/03/04 03:33:57;;;;;;;0.90;0.82;;;;;;;10.28;87.71;101354.28;7392321;19;20047;-61
2023/03/04 03:36:23;;;;;;;0.80;0.80;;;;;;;10.30;86.05;101357.44;7393432;19;20095;-61
2023/03/04 03:38:49;;;;;;;0.73;0.73;;;;;;;10.72;82.60;101354.72;7394119;19;20926;-61
2023/03/04 03:41:15;;;;;;;15.75;1.15;;;;;;;9.88;85.46;101364.78;7393421;19;20014;-61
2023/03/04 03:43:42;;;;;;;0.40;0.40;;;;;;;10.37;83.37;101360.00;7392800;19;20006;-61
2023/03/04 03:46:08;;;;;;;1.23;0.63;;;;;;;10.61;81.62;101357.81;7392286;19;20355;-61
2023/03/04 03:48:34;;;;;;;0.30;0.30;;;;;;;18.84;63.20;101342.16;7397238;19;20395;-61
2023/03/04 03:51:00;;;;;;;0.40;0.40;;;;;;;7.48;92.31;101365.81;7393119;19;20518;-61
2023/03/04 03:53:26;;;;;;;0.40;0.40;;;;;;;6.82;100.00;101357.16;7393588;19;20034;-61
2023/03/04 03:55:52;;;;;;;0.60;0.55;;;;;;;6.46;100.00;101360.72;7393675;19;20010;-61
2023/03/04 03:58:18;;;;;;;1.33;0.90;;;;;;;6.41;100.00;101359.19;7396778;19;20011;-61
2023/03/04 04:00:45;;;;;;;16.38;0.98;;;;;;;6.54;100.00;101365.03;7397063;19;20455;-61
2023/03/04 04:03:14;;;;;;;0.13;0.13;;;;;;;6.07;100.00;101353.59;7392880;19;20468;-61
2023/03/04 04:05:41;;;;;;;0.90;0.90;;;;;;;6.15;100.00;101356.31;7392095;19;20018;-61
2023/03/04 04:08:13;;;;;;;0.68;0.60;;;;;;;5.94;100.00;101357.25;7396191;19;20452;-61
2023/03/04 04:10:40;;;;;;;15.38;1.00;;;;;;;6.02;100.00;101356.03;7392506;19;20371;-61
2023/03/04 04:13:06;;;;;;;0.38;0.38;;;;;;;5.26;100.00;101347.84;7393395;19;20062;-62
2023/03/04 04:15:32;;;;;;;0.50;0.50;;;;;;;4.96;100.00;101350.34;7391419;19;20014;-61
2023/03/04 04:17:58;;;;;;;0.43;0.40;;;;;;;5.03;100.00;101353.06;7395727;19;20015;-61
2023/03/04 04:20:25;;;;;;;1.33;1.23;;;;;;;5.04;100.00;101343.59;7395827;19;20022;-61
2023/03/04 04:22:51;;;;;;;1.85;0.45;;;;;;;5.05;100.00;101343.19;7392292;19;20010;-62
2023/03/04 04:25:17;;;;;;;0.60;0.50;;;;;;;5.19;100.00;101339.59;7393199;19;20011;-61
2023/03/04 04:27:43;;;;;;;1.15;0.70;;;;;;;5.09;100.00;101345.97;7393796;19;20006;-61
2023/03/04 04:30:10;;;;;;;1.90;1.52;;;;;;;4.87;100.00;101350.00;7395853;19;20551;-61
2023/03/04 04:32:36;;;;;;;0.40;0.40;;;;;;;5.82;100.00;101349.44;7391692;19;20467;-62
2023/03/04 04:35:02;;;;;;;0.73;0.73;;;;;;;5.43;100.00;101349.72;7392763;19;20116;-60
2023/03/04 04:37:28;;;;;;;0.77;0.77;;;;;;;5.15;100.00;101352.63;7393983;19;20342;-61
2023/03/04 04:39:55;;;;;;;12.00;1.00;;;;;;;4.97;100.00;101360.19;7392149;19;20011;-61
2023/03/04 04:42:21;;;;;;;0.77;0.75;;;;;;;5.05;100.00;101361.72;7399013;19;20010;-61
2023/03/04 04:44:47;;;;;;;0.95;0.95;;;;;;;4.96;100.00;101359.41;7398433;19;20084;-61
2023/03/04 04:47:13;;;;;;;1.67;0.88;;;;;;;4.84;100.00;101364.56;7398180;19;20356;-61
2023/03/04 04:49:40;;;;;;;5.20;1.95;;;;;;;4.95;100.00;101362.56;7398985;19;20018;-61
2023/03/04 04:52:06;;;;;;;0.20;0.20;;;;;;;4.95;100.00;101362.56;7398957;19;20014;-61
2023/03/04 04:54:32;;;;;;;0.40;0.40;;;;;;;4.61;100.00;101370.56;7399538;19;20011;-62
2023/03/04 04:56:58;;;;;;;2.00;0.65;;;;;;;6.71;100.00;101356.50;7400037;19;20379;-62
2023/03/04 04:59:24;;;;;;;0.98;0.70;;;;;;;4.56;100.00;101363.50;7400756;19;20010;-62
2023/03/04 05:01:51;;;;;;;0.52;0.52;;;;;;;5.08;100.00;101363.69;7398517;19;20015;-61
2023/03/04 05:04:17;;;;;;;1.15;1.02;;;;;;;5.27;100.00;101349.41;7398620;19;20034;-61
2023/03/04 05:06:44;;;;;;;2.25;1.33;;;;;;;4.96;100.00;101355.88;7396445;19;20016;-62
2023/03/04 05:09:11;;;;;;;12.13;1.05;;;;;;;5.02;100.00;101357.81;7398600;19;20019;-61
2023/03/04 05:11:37;;;;;;;0.98;0.98;;;;;;;4.85;100.00;101360.66;7398136;19;20018;-61
2023/03/04 05:14:03;;;;;;;1.63;1.10;;;;;;;4.98;100.00;101367.31;7398193;19;20030;-62
2023/03/04 05:16:30;;;;;;;0.95;0.82;;;;;;;4.99;100.00;101357.81;7396530;19;20459;-61
2023/03/04 05:18:56;;;;;;;1.13;0.57;;;;;;;4.91;100.00;101356.28;7399140;19;20101;-61
2023/03/04 05:21:22;;;;;;;0.20;0.20;;;;;;;5.00;100.00;101359.41;7397479;19;20068;-61
2023/03/04 05:23:51;;;;;;;1.05;0.95;;;;;;;4.23;100.00;101354.88;7398581;19;20022;-59
2023/03/04 05:26:18;;;;;;;0.47;0.38;;;;;;;4.28;100.00;101368.25;7395856;19;20356;-59
2023/03/04 05:28:44;;;;;;;7.00;1.13;;;;;;;4.83;100.00;101363.03;7398908;19;20024;-58
2023/03/04 05:31:11;;;;;;;0.63;0.63;;;;;;;4.11;100.00;101372.63;7398572;19;20106;-58
2023/03/04 05:33:37;;;;;;;0.50;0.50;;;;;;;4.68;100.00;101375.28;7397174;19;20027;-58
2023/03/04 05:36:05;;;;;;;1.02;0.60;;;;;;;5.04;100.00;101377.53;7397963;19;20027;-58
2023/03/04 05:38:32;;;;;;;1.00;0.75;;;;;;;5.11;100.00;101382.22;7402820;19;20459;-59
2023/03/04 05:41:03;;;;;;;1.35;1.10;;;;;;;5.10;100.00;101383.41;7398094;19;20010;-59
2023/03/04 05:43:31;;;;;;;1.58;0.82;;;;;;;4.87;100.00;101385.88;7397781;19;20014;-58
2023/03/04 05:45:57;;;;;;;1.45;0.50;;;;;;;4.87;100.00;101388.63;7396379;19;20420;-61
2023/03/04 05:48:23;;;;;;;1.45;1.00;;;;;;;6.79;100.00;101390.44;7400998;19;20022;-61
2023/03/04 05:50:54;;;;;;;1.73;0.60;;;;;;;6.65;100.00;101385.03;7396809;19;20003;-61
2023/03/04 05:53:20;;;;;;;0.43;0.43;;;;;;;5.41;100.00;101382.47;7396101;19;20334;-58
2023/03/04 05:55:46;;;;;;;2.00;0.93;;;;;;;4.92;100.00;101390.97;7396280;19;20022;-61
2023/03/04 05:58:13;;;;;;;1.10;0.55;;;;;;;5.25;100.00;101393.19;7400400;19;20019;-61
2023/03/04 06:00:39;;;;;;;1.73;1.05;;;;;;;5.08;100.00;101386.56;7401527;19;20002;-61
2023/03/04 06:03:06;;;;;;;1.85;0.68;;;;;;;6.44;100.00;101385.25;7397050;19;20023;-61
2023/03/04 06:05:32;;;;;;;5.50;1.52;;;;;;;5.13;100.00;101390.91;7395979;19;20015;-61
2023/03/04 06:07:58;;;;;;;0.70;0.70;;;;;;;4.31;100.00;101400.56;7399191;19;20020;-60
2023/03/04 06:10:24;;;;;;;16.15;1.42;;;;;;;4.63;100.00;101391.03;7394421;19;20011;-61
2023/03/04 06:12:53;;;;;;;1.02;0.90;;;;;;;5.16;100.00;101379.84;7393332;19;20015;-61
2023/03/04 06:15:19;;;;;;;5.35;1.52;;;;;;;4.77;100.00;101394.94;7393780;19;20017;-61
2023/03/04 06:17:45;;;;;;;2.40;1.23;;;;;;;4.72;100.00;101392.63;7397307;19;20077;-61
2023/03/04 06:20:11;;;;;;;1.25;1.15;;;;;;;4.91;100.00;101383.88;7396760;19;20025;-61
2023/03/04 06:22:38;;;;;;;0.70;0.70;;;;;;;4.89;100.00;101391.78;7393683;19;20081;-60
2023/03/04 06:25:05;;;;;;;1.70;0.80;;;;;;;5.16;100.00;101390.09;7393028;19;20023;-61
2023/03/04 06:27:31;;;;;;;0.57;0.57;;;;;;;5.01;100.00;101383.84;7395416;19;20014;-61
2023/03/04 06:30:00;;;;;;;2.78;1.05;;;;;;;4.77;100.00;101381.94;7398937;19;20351;-61
2023/03/04 06:32:26;;;;;;;3.55;2.22;;;;;;;4.99;100.00;101385.41;7395359;19;20462;-61
2023/03/04 06:34:53;;;;;;;0.73;0.55;;;;;;;5.01;100.00;101389.38;7394311;19;20011;-61
2023/03/04 06:37:19;;;;;;;2.88;1.50;;;;;;;4.95;100.00;101393.72;7396275;19;20018;-61
2023/03/04 06:39:45;;;;;;;4.75;2.47;;;;;;;5.20;100.00;101391.63;7392729;19;20010;-61
2023/03/04 06:42:12;;;;;;;1.27;0.68;;;;;;;4.76;100.00;101398.91;7393557;19;20345;-62
2023/03/04 06:44:38;;;;;;;1.00;0.95;;;;;;;5.06;100.00;101393.69;7394149;19;20007;-61
2023/03/04 06:47:04;;;;;;;4.60;1.05;;;;;;;4.73;100.00;101406.00;7395274;19;20509;-61
2023/03/04 06:49:30;;;;;;;1.30;1.02;;;;;;;5.16;100.00;101395.59;7395087;19;20028;-61
2023/03/04 06:51:57;;;;;;;2.50;1.48;;;;;;;5.27;100.00;101401.88;7399112;19;20069;-61
2023/03/04 06:54:23;;;;;;;2.72;1.92;;;;;;;5.09;100.00;101401.19;7393875;19;20019;-61
2023/03/04 06:56:49;;;;;;;1.00;0.65;;;;;;;4.76;100.00;101409.94;7396738;19;20011;-61
2023/03/04 06:59:15;;;;;;;0.40;0.40;;;;;;;4.92;100.00;101402.00;7397545;19;20011;-60
2023/03/04 07:01:41;;;;;;;0.88;0.88;;;;;;;4.75;100.00;101409.16;7394690;19;20021;-61
2023/03/04 07:04:08;;;;;;;1.02;1.02;;;;;;;4.82;100.00;101414.66;7392382;19;20474;-61
2023/03/04 07:06:34;;;;;;;2.90;1.27;;;;;;;5.06;100.00;101413.81;7393858;19;20070;-61
2023/03/04 07:09:00;;;;;;;0.75;0.75;;;;;;;5.09;100.00;101417.75;7393773;19;20010;-61
2023/03/04 07:11:26;;;;;;;1.10;1.10;;;;;;;4.93;100.00;101418.19;7396013;19;20010;-61
2023/03/04 07:13:52;;;;;;;1.85;1.05;;;;;;;4.88;100.00;101423.31;7394318;19;20018;-61
2023/03/04 07:16:21;;;;;;;1.00;1.00;;;;;;;4.96;100.00;101422.13;7394142;19;20035;-62
2023/03/04 07:18:48;;;;;;;1.08;1.05;;;;;;;4.93;100.00;101431.19;7393638;19;20014;-61
2023/03/04 07:21:16;;;;;;;0.90;0.90;;;;;;;5.15;100.00;101421.66;7393665;19;20142;-61
2023/03/04 07:23:43;;;;;;;0.65;0.65;;;;;;;5.14;100.00;101425.59;7393396;19;20070;-62
2023/03/04 07:26:09;;;;;;;3.88;1.35;;;;;;;5.16;100.00;101423.22;7393252;19;20029;-62
2023/03/04 07:28:35;;;;;;;1.80;1.23;;;;;;;5.15;100.00;101421.66;7398680;19;20022;-62
2023/03/04 07:31:08;;;;;;;2.20;1.45;;;;;;;5.11;100.00;101426.41;7394094;19;20329;-63
2023/03/04 07:33:34;;;;;;;1.40;1.30;;;;;;;4.98;100.00;101422.50;7393564;19;20007;-61
2023/03/04 07:36:00;;;;;;;3.63;2.22;;;;;;;4.94;100.00;101427.22;7393185;19;20007;-62
2023/03/04 07:38:26;;;;;;;1.05;0.90;;;;;;;4.97;100.00;101431.97;7396037;19;20010;-62
2023/03/04 07:40:59;;;;;;;0.40;0.40;;;;;;;4.85;100.00;101435.16;7393592;19;20423;-62
2023/03/04 07:43:26;;;;;;;1.42;1.25;;;;;;;5.27;100.00;101426.72;7392193;19;20013;-62
2023/03/04 07:45:56;;;;;;;0.73;0.73;;;;;;;5.61;100.00;101426.97;7391593;19;20082;-62
2023/03/04 07:48:23;;;;;;;0.93;0.90;;;;;;;5.81;100.00;101426.03;7395945;19;20459;-61
2023/03/04 07:50:49;;;;;;;1.75;0.82;;;;;;;6.03;100.00;101432.25;7392945;19;20010;-61
2023/03/04 07:53:15;;;;;;;0.65;0.65;;;;;;;5.74;100.00;101428.84;7393931;19;20504;-61
2023/03/04 07:55:41;;;;;;;3.63;1.48;;;;;;;5.61;100.00;101433.25;7393612;19;20031;-62
2023/03/04 07:58:07;;;;;;;0.45;0.45;;;;;;;5.65;100.00;101434.03;7396563;19;20013;-62
2023/03/04 08:00:33;;;;;;;1.05;0.73;;;;;;;5.50;100.00;101429.75;7396361;19;20116;-61
2023/03/04 08:02:59;;;;;;;1.40;1.30;;;;;;;5.72;100.00;101436.75;7392332;19;20019;-62
2023/03/04 08:05:26;;;;;;;6.53;2.88;;;;;;;5.19;100.00;101427.94;7392455;19;20470;-61
2023/03/04 08:07:52;;;;;;;3.42;1.77;;;;;;;5.40;100.00;101433.38;7396185;19;20014;-61
2023/03/04 08:10:18;;;;;;;1.17;1.17;;;;;;;5.84;100.00;101425.28;7392286;19;20070;-62
2023/03/04 08:12:44;;;;;;;1.85;1.52;;;;;;;5.44;100.00;101428.63;7391846;19;20093;-62
2023/03/04 08:15:11;;;;;;;4.45;1.42;;;;;;;5.73;100.00;101430.06;7394503;19;20071;-62
2023/03/04 08:17:37;;;;;;;1.42;0.93;;;;;;;5.92;100.00;101421.25;7402779;19;20011;-62
2023/03/04 08:20:04;;;;;;;2.33;0.88;;;;;;;6.00;100.00;101431.06;7402383;19;20392;-62
2023/03/04 08:22:30;;;;;;;1.60;1.45;;;;;;;7.33;100.00;101425.41;7400639;19;20074;-61
2023/03/04 08:24:56;;;;;;;1.65;1.17;;;;;;;6.69;100.00;101424.56;7398866;19;20014;-62
2023/03/04 08:27:22;;;;;;;4.25;3.30;;;;;;;6.22;100.00;101428.13;7399385;19;20018;-59
2023/03/04 08:29:49;;;;;;;1.75;1.05;;;;;;;6.16;100.00;101430.56;7402507;19;20110;-59
2023/03/04 08:32:15;;;;;;;0.40;0.40;;;;;;;5.40;100.00;101430.63;7399840;19;20019;-59
2023/03/04 08:34:41;;;;;;;5.07;1.73;;;;;;;5.79;100.00;101417.38;7399722;19;20010;-59
2023/03/04 08:37:07;;;;;;;1.55;1.42;;;;;;;5.75;100.00;101430.44;7400907;19;20455;-59
2023/03/04 08:39:34;;;;;;;1.75;1.65;;;;;;;5.45;100.00;101429.41;7400291;19;20006;-59
2023/03/04 08:42:01;;;;;;;1.33;1.23;;;;;;;6.19;100.00;101424.22;7399296;19;20027;-59
2023/03/04 08:44:27;;;;;;;4.45;2.08;;;;;;;5.49;100.00;101425.44;7398488;19;20483;-62
2023/03/04 08:46:53;;;;;;;2.60;1.10;;;;;;;7.12;100.00;101424.88;7397880;19;20026;-62
2023/03/04 08:49:19;;;;;;;0.52;0.52;;;;;;;6.06;100.00;101426.66;7397531;19;20344;-61
2023/03/04 08:51:45;;;;;;;4.35;1.55;;;;;;;5.81;100.00;101420.50;7399240;19;20018;-59
2023/03/04 08:54:12;;;;;;;1.02;0.98;;;;;;;7.15;100.00;101418.50;7399499;19;20015;-59
2023/03/04 08:56:40;;;;;;;2.17;0.90;;;;;;;5.55;100.00;101421.06;7399998;19;20010;-59
2023/03/04 08:59:06;;;;;;;1.15;1.02;;;;;;;5.04;100.00;101421.69;7399100;19;20022;-59
2023/03/04 09:01:32;;;;;;;0.93;0.93;;;;;;;4.93;100.00;101425.66;7397612;19;20010;-59
2023/03/04 09:03:58;;;;;;;0.70;0.70;;;;;;;4.87;100.00;101427.28;7398036;19;20467;-59
2023/03/04 09:06:24;;;;;;;1.83;1.60;;;;;;;4.88;100.00;101417.78;7397798;19;20496;-59
2023/03/04 09:08:50;;;;;;;0.63;0.63;;;;;;;5.63;100.00;101421.81;7399691;19;20447;-59
2023/03/04 09:11:17;;;;;;;1.40;0.95;;;;;;;5.93;100.00;101422.06;7399381;19;20031;-59
2023/03/04 09:13:43;;;;;;;0.70;0.70;;;;;;;5.92;100.00;101410.19;7398421;19;20025;-59
2023/03/04 09:16:11;;;;;;;2.33;1.70;;;;;;;5.96;100.00;101413.72;7399601;19;20038;-59
2023/03/04 09:18:38;;;;;;;2.50;1.40;;;;;;;6.02;100.00;101414.84;7403870;19;20006;-59
2023/03/04 09:21:07;;;;;;;1.45;1.35;;;;;;;6.01;100.00;101424.38;7402842;19;20010;-59
2023/03/04 09:23:34;;;;;;;1.95;1.42;;;;;;;6.08;100.00;101424.31;7397787;19;20466;-59
2023/03/04 09:26:00;;;;;;;1.95;1.20;;;;;;;6.08;100.00;101418.78;7397734;19;20034;-59
2023/03/04 09:28:26;;;;;;;3.05;0.98;;;;;;;6.08;100.00;101423.53;7400505;19;20006;-59
2023/03/04 09:30:53;;;;;;;6.43;1.67;;;;;;;6.04;100.00;101418.00;7399589;19;20078;-59
2023/03/04 09:33:19;;;;;;;1.05;0.98;;;;;;;6.07;100.00;101416.41;7398739;19;20015;-59
2023/03/04 09:35:47;;;;;;;0.50;0.50;;;;;;;6.13;100.00;101419.53;7398466;19;20010;-59
2023/03/04 09:38:13;;;;;;;2.40;2.25;;;;;;;6.13;100.00;101421.09;7399326;19;20007;-59
2023/03/04 09:40:47;;;;;;;3.60;1.38;;;;;;;6.14;100.00;101410.81;7397799;19;20028;-59
2023/03/04 09:43:28;;;;;;;2.47;1.48;;;;;;;6.08;100.00;101413.25;7397674;19;20037;-59
2023/03/04 09:45:59;;;;;;;2.53;1.63;;;;;;;6.03;100.00;101413.69;7395705;19;20034;-59
2023/03/04 09:48:28;;;;;;;2.50;1.70;;;;;;;6.05;100.00;101408.53;7400807;19;20006;-59
2023/03/04 09:51:17;;;;;;;3.53;1.52;;;;;;;6.04;100.00;101411.72;7396883;19;20014;-59
2023/03/04 09:54:07;;;;;;;4.07;1.27;;;;;;;6.03;100.00;101419.22;7397461;19;20034;-59
2023/03/04 09:56:37;;;;;;;0.73;0.73;;;;;;;5.93;100.00;101419.28;7398124;19;20011;-59
2023/03/04 09:59:06;;;;;;;3.03;2.00;;;;;;;5.77;100.00;101421.72;7397906;19;20014;-59
2023/03/04 10:01:49;;;;;;;1.67;1.10;;;;;;;5.74;100.00;101414.25;7395684;19;20018;-59
2023/03/04 10:04:40;;;;;;;0.75;0.75;;;;;;;5.71;100.00;101410.31;7396225;19;20010;-59
2023/03/04 10:07:17;;;;;;;3.10;0.82;;;;;;;5.69;100.00;101406.38;7396549;19;20023;-59
2023/03/04 10:09:52;;;;;;;0.68;0.68;;;;;;;5.69;100.00;101412.72;7396352;19;20014;-59
2023/03/04 10:12:23;;;;;;;1.75;1.27;;;;;;;5.70;100.00;101419.78;7396004;19;20014;-59
2023/03/04 10:15:03;;;;;;;0.80;0.80;;;;;;;5.67;100.00;101420.63;7396248;19;20640;-59
2023/03/04 10:17:38;;;;;;;1.55;1.40;;;;;;;5.64;100.00;101415.09;7398939;19;20250;-59
2023/03/04 10:20:15;;;;;;;1.02;0.82;;;;;;;5.67;100.00;101423.38;7399138;19;20032;-59
2023/03/04 10:22:43;;;;;;;4.25;1.88;;;;;;;5.69;100.00;101415.47;7395686;19;20010;-59
2023/03/04 10:25:29;;;;;;;9.80;2.15;;;;;;;5.62;100.00;101418.28;7396478;19;20075;-59
2023/03/04 10:28:09;;;;;;;5.97;1.13;;;;;;;5.54;100.00;101419.50;7399365;19;20018;-59
2023/03/04 10:31:00;;;;;;;1.15;1.15;;;;;;;5.54;100.00;101416.75;7400537;19;20027;-59
2023/03/04 10:33:36;;;;;;;1.45;1.23;;;;;;;5.51;100.00;101423.06;7395758;19;20011;-59
2023/03/04 10:36:14;;;;;;;5.20;1.27;;;;;;;5.55;100.00;101423.81;7395513;19;20052;-59
2023/03/04 10:38:42;;;;;;;2.25;1.23;;;;;;;5.57;100.00;101426.97;7399132;19;20092;-59
2023/03/04 10:41:24;;;;;;;0.65;0.65;;;;;;;5.52;100.00;101415.56;7395800;19;20017;-59
2023/03/04 10:44:02;;;;;;;4.82;1.05;;;;;;;5.50;100.00;101424.25;7395737;19;20014;-59
2023/03/04 10:46:29;;;;;;;1.08;1.08;;;;;;;6.00;100.00;101410.91;7393825;19;20483;-59
2023/03/04 10:48:56;;;;;;;1.52;1.42;;;;;;;5.86;100.00;101424.84;7394581;19;20026;-59
2023/03/04 10:51:26;;;;;;;0.50;0.50;;;;;;;6.39;100.00;101411.38;7394978;19;20021;-59
2023/03/04 10:54:06;;;;;;;0.60;0.60;;;;;;;6.28;100.00;101412.69;7394933;19;20010;-59
2023/03/04 10:56:41;;;;;;;1.83;1.30;;;;;;;6.11;100.00;101412.41;7396210;19;20018;-59
2023/03/04 10:59:49;;;;;;;2.05;1.85;;;;;;;6.10;100.00;101410.88;7395793;19;20070;-59
2023/03/04 11:02:18;;;;;;;0.95;0.95;;;;;;;6.53;100.00;101405.75;7391597;19;20018;-59
2023/03/04 11:05:17;;;;;;;1.30;1.20;;;;;;;6.32;100.00;101405.16;7394061;19;20142;-59
2023/03/04 11:07:44;;;;;;;0.70;0.70;;;;;;;6.97;100.00;101401.31;7394837;19;20013;-59
2023/03/04 11:10:16;;;;;;;2.25;1.23;;;;;;;6.45;100.00;101398.72;7394478;19;20034;-59
2023/03/04 11:12:54;;;;;;;2.22;1.20;;;;;;;6.24;100.00;101403.66;7394589;19;20015;-59
2023/03/04 11:15:30;;;;;;;1.85;1.23;;;;;;;6.62;100.00;101399.72;7394816;19;20022;-59
2023/03/04 11:18:06;;;;;;;1.55;1.00;;;;;;;6.64;100.00;101400.09;7395661;19;20010;-59
2023/03/04 11:20:37;;;;;;;3.92;1.40;;;;;;;6.42;100.00;101393.19;7396898;19;20410;-59
2023/03/04 11:23:11;;;;;;;0.60;0.60;;;;;;;6.40;100.00;101384.50;7393358;19;20099;-59
2023/03/04 11:25:42;;;;;;;0.85;0.85;;;;;;;6.06;100.00;101387.97;7393240;19;20011;-59
2023/03/04 11:28:21;;;;;;;0.80;0.80;;;;;;;5.98;100.00;101389.22;7396552;19;20038;-59
2023/03/04 11:30:53;;;;;;;1.30;1.00;;;;;;;5.78;100.00;101384.63;7398184;19;20018;-59